Time;durP1;ratioP1;P1;durP2;ratioP2;P2;SDS_P1;SDS_P2;PMS_P1;PMS_P2;Temp;Humidity;BMP_temperature;BMP_pressure;BME280_temperature;BME280_humidity;BME280_pressure;Samples;Min_cycle;Max_cycle;Signal;HPM_P1;HPM_P2
2023/09/20 00:00:46;;;;;;;3.90;0.80;;;;;;;;;;5263067;28;20013;-77
2023/09/20 00:03:19;;;;;;;3.00;0.55;;;;;;;;;;5263440;28;20263;-77
2023/09/20 00:05:51;;;;;;;4.72;0.70;;;;;;;;;;5262339;28;20086;-77
2023/09/20 00:08:22;;;;;;;4.40;0.60;;;;;;;;;;5263428;28;20468;-78
2023/09/20 00:10:53;;;;;;;3.20;0.57;;;;;;;;;;5261963;28;20016;-78
2023/09/20 00:13:24;;;;;;;4.13;0.80;;;;;;;;;;5263066;28;20025;-78
2023/09/20 00:15:56;;;;;;;2.72;0.65;;;;;;;;;;5262997;28;20769;-78
2023/09/20 00:18:30;;;;;;;5.65;0.73;;;;;;;;;;5262086;28;20016;-78
2023/09/20 00:21:01;;;;;;;4.03;0.80;;;;;;;;;;5262826;28;20100;-78
2023/09/20 00:23:32;;;;;;;4.47;0.60;;;;;;;;;;5262615;28;20462;-78
2023/09/20 00:26:04;;;;;;;3.65;0.55;;;;;;;;;;5262315;28;20452;-78
2023/09/20 00:28:35;;;;;;;3.72;0.57;;;;;;;;;;5262829;28;20074;-78
2023/09/20 00:31:09;;;;;;;3.88;0.50;;;;;;;;;;5262225;28;20049;-78
2023/09/20 00:33:40;;;;;;;4.75;0.77;;;;;;;;;;5262233;28;20470;-78
2023/09/20 00:36:18;;;;;;;3.80;0.90;;;;;;;;;;5262689;28;20116;-78
2023/09/20 00:38:52;;;;;;;3.30;0.60;;;;;;;;;;5262542;28;20302;-78
2023/09/20 00:41:24;;;;;;;4.35;0.60;;;;;;;;;;5262048;28;20078;-78
2023/09/20 00:43:55;;;;;;;2.20;0.50;;;;;;;;;;5262464;28;20013;-78
2023/09/20 00:46:26;;;;;;;3.85;0.57;;;;;;;;;;5261790;28;20486;-78
2023/09/20 00:48:59;;;;;;;5.07;0.52;;;;;;;;;;5262362;28;20031;-77
2023/09/20 00:51:30;;;;;;;3.97;0.60;;;;;;;;;;5261596;28;20091;-78
2023/09/20 00:54:04;;;;;;;4.75;0.80;;;;;;;;;;5261658;28;20108;-78
2023/09/20 00:56:35;;;;;;;4.05;0.70;;;;;;;;;;5262170;28;20092;-78
2023/09/20 00:59:07;;;;;;;2.75;0.60;;;;;;;;;;5262048;28;20100;-78
2023/09/20 01:01:39;;;;;;;3.08;0.60;;;;;;;;;;5261539;28;20419;-78
2023/09/20 01:04:11;;;;;;;3.92;0.60;;;;;;;;;;5262088;28;20468;-78
2023/09/20 01:06:44;;;;;;;4.38;0.60;;;;;;;;;;5261707;28;20052;-78
2023/09/20 01:09:16;;;;;;;3.05;0.60;;;;;;;;;;5261726;28;20471;-78
2023/09/20 01:11:47;;;;;;;3.88;0.80;;;;;;;;;;5261751;28;20017;-76
2023/09/20 01:14:20;;;;;;;4.30;0.80;;;;;;;;;;5261411;28;20052;-78
2023/09/20 01:16:53;;;;;;;4.20;1.02;;;;;;;;;;5261162;28;20267;-77
2023/09/20 01:19:25;;;;;;;4.45;1.00;;;;;;;;;;5261688;28;20482;-78
2023/09/20 01:21:56;;;;;;;5.13;0.50;;;;;;;;;;5261269;28;20025;-78
2023/09/20 01:24:29;;;;;;;4.72;0.70;;;;;;;;;;5261790;28;20278;-78
2023/09/20 01:27:03;;;;;;;3.95;0.60;;;;;;;;;;5261364;28;20113;-79
2023/09/20 01:29:35;;;;;;;3.60;0.50;;;;;;;;;;5260807;28;20385;-78
2023/09/20 01:32:07;;;;;;;4.35;0.52;;;;;;;;;;5261742;28;20092;-78
2023/09/20 01:34:38;;;;;;;5.05;0.80;;;;;;;;;;5261361;28;20017;-75
2023/09/20 01:37:09;;;;;;;3.70;0.70;;;;;;;;;;5260934;28;20017;-76
2023/09/20 01:39:40;;;;;;;5.43;0.70;;;;;;;;;;5261482;28;20040;-76
2023/09/20 01:42:11;;;;;;;3.20;0.60;;;;;;;;;;5261078;28;20365;-76
2023/09/20 01:44:43;;;;;;;4.13;0.77;;;;;;;;;;5261165;28;20025;-76
2023/09/20 01:47:14;;;;;;;3.10;0.60;;;;;;;;;;5261274;28;20355;-76
2023/09/20 01:49:46;;;;;;;3.63;0.63;;;;;;;;;;5259975;28;20267;-78
2023/09/20 01:52:17;;;;;;;2.65;0.50;;;;;;;;;;5261566;28;20816;-78
2023/09/20 01:54:50;;;;;;;4.77;0.60;;;;;;;;;;5260934;28;20020;-77
2023/09/20 01:57:21;;;;;;;6.50;1.38;;;;;;;;;;5261051;28;20263;-76
2023/09/20 01:59:52;;;;;;;2.70;0.60;;;;;;;;;;5260989;28;20029;-77
2023/09/20 02:02:23;;;;;;;5.47;0.73;;;;;;;;;;5259964;28;20109;-77
2023/09/20 02:04:55;;;;;;;5.18;1.00;;;;;;;;;;5260371;28;20432;-76
2023/09/20 02:07:26;;;;;;;2.80;0.50;;;;;;;;;;5261093;28;20117;-76
2023/09/20 02:09:58;;;;;;;3.53;0.63;;;;;;;;;;5260948;28;20079;-76
2023/09/20 02:12:29;;;;;;;3.83;0.85;;;;;;;;;;5260490;28;20347;-77
2023/09/20 02:15:01;;;;;;;2.80;0.57;;;;;;;;;;5260908;28;20017;-77
2023/09/20 02:17:35;;;;;;;4.85;0.70;;;;;;;;;;5260010;28;20298;-76
2023/09/20 02:20:10;;;;;;;2.20;0.60;;;;;;;;;;5260808;28;20396;-76
2023/09/20 02:22:42;;;;;;;3.53;0.55;;;;;;;;;;5260707;28;20029;-78
2023/09/20 02:25:14;;;;;;;3.60;0.95;;;;;;;;;;5260339;28;20096;-77
2023/09/20 02:27:45;;;;;;;2.28;0.70;;;;;;;;;;5260456;28;20136;-77
2023/09/20 02:30:19;;;;;;;5.73;0.90;;;;;;;;;;5260744;28;20103;-76
2023/09/20 02:32:52;;;;;;;4.03;0.52;;;;;;;;;;5259654;28;20359;-77
2023/09/20 02:35:27;;;;;;;3.35;0.60;;;;;;;;;;5260682;28;20088;-77
2023/09/20 02:37:59;;;;;;;2.97;0.68;;;;;;;;;;5260470;28;20029;-77
2023/09/20 02:40:31;;;;;;;1.98;0.52;;;;;;;;;;5260440;28;20017;-77
2023/09/20 02:43:08;;;;;;;3.80;0.55;;;;;;;;;;5260825;28;20009;-76
2023/09/20 02:45:39;;;;;;;5.70;0.60;;;;;;;;;;5260018;28;20024;-76
2023/09/20 02:48:11;;;;;;;4.90;0.60;;;;;;;;;;5260500;28;20029;-76
2023/09/20 02:50:44;;;;;;;4.35;0.50;;;;;;;;;;5260313;28;20025;-77
2023/09/20 02:53:15;;;;;;;6.90;1.08;;;;;;;;;;5260424;28;20013;-77
2023/09/20 02:55:46;;;;;;;7.40;1.00;;;;;;;;;;5260402;28;20063;-77
2023/09/20 02:58:17;;;;;;;2.43;0.70;;;;;;;;;;5260345;28;20017;-78
2023/09/20 03:00:50;;;;;;;5.03;0.80;;;;;;;;;;5259637;28;20259;-77
2023/09/20 03:03:23;;;;;;;4.43;0.80;;;;;;;;;;5260620;28;20033;-77
2023/09/20 03:05:54;;;;;;;4.97;0.60;;;;;;;;;;5260202;28;20040;-78
2023/09/20 03:08:25;;;;;;;4.10;0.83;;;;;;;;;;5259801;28;20036;-78
2023/09/20 03:10:56;;;;;;;3.40;0.53;;;;;;;;;;5260530;28;20264;-77
2023/09/20 03:13:27;;;;;;;2.77;0.50;;;;;;;;;;5261487;28;20809;-78
2023/09/20 03:16:01;;;;;;;3.00;0.80;;;;;;;;;;5263908;28;20264;-78
2023/09/20 03:18:33;;;;;;;3.20;0.60;;;;;;;;;;5263836;28;20351;-78
2023/09/20 03:21:10;;;;;;;7.47;0.73;;;;;;;;;;5263585;28;20547;-77
2023/09/20 03:23:42;;;;;;;5.45;0.73;;;;;;;;;;5264080;28;20017;-76
2023/09/20 03:26:15;;;;;;;3.42;0.70;;;;;;;;;;5264356;28;20375;-78
2023/09/20 03:28:48;;;;;;;5.20;0.70;;;;;;;;;;5262849;28;20035;-75
2023/09/20 03:31:22;;;;;;;5.38;0.60;;;;;;;;;;5264383;28;20021;-78
2023/09/20 03:33:53;;;;;;;2.63;0.70;;;;;;;;;;5263403;28;20020;-77
2023/09/20 03:36:25;;;;;;;3.22;0.55;;;;;;;;;;5263221;28;20020;-77
2023/09/20 03:38:57;;;;;;;2.95;0.55;;;;;;;;;;5263977;28;20048;-77
2023/09/20 03:41:29;;;;;;;3.70;0.65;;;;;;;;;;5263874;28;20009;-77
2023/09/20 03:44:00;;;;;;;4.53;0.70;;;;;;;;;;5263026;28;20024;-77
2023/09/20 03:46:32;;;;;;;3.95;0.65;;;;;;;;;;5263633;28;20053;-77
2023/09/20 03:49:03;;;;;;;9.60;1.45;;;;;;;;;;5262571;28;20028;-78
2023/09/20 03:51:34;;;;;;;2.93;0.60;;;;;;;;;;5263700;28;20487;-77
2023/09/20 03:54:07;;;;;;;5.07;0.70;;;;;;;;;;5263464;28;20401;-78
2023/09/20 03:56:41;;;;;;;5.15;0.88;;;;;;;;;;5263046;28;20781;-77
2023/09/20 03:59:12;;;;;;;3.17;0.60;;;;;;;;;;5263262;28;20079;-78
2023/09/20 04:01:44;;;;;;;2.03;0.60;;;;;;;;;;5263353;28;20025;-77
2023/09/20 04:04:16;;;;;;;3.45;0.60;;;;;;;;;;5262923;28;20021;-78
2023/09/20 04:06:47;;;;;;;4.70;1.08;;;;;;;;;;5262993;28;20036;-78
2023/09/20 04:09:20;;;;;;;3.13;0.68;;;;;;;;;;5263738;28;20029;-78
2023/09/20 04:11:52;;;;;;;4.18;0.70;;;;;;;;;;5262220;28;20050;-78
2023/09/20 04:14:24;;;;;;;5.45;0.85;;;;;;;;;;5263535;28;20017;-78
2023/09/20 04:16:55;;;;;;;4.60;0.70;;;;;;;;;;5262860;28;20017;-78
2023/09/20 04:19:27;;;;;;;2.87;0.73;;;;;;;;;;5262476;28;20070;-77
2023/09/20 04:22:01;;;;;;;3.85;0.70;;;;;;;;;;5262577;28;20276;-77
2023/09/20 04:24:35;;;;;;;3.28;0.60;;;;;;;;;;5261434;28;20017;-76
2023/09/20 04:27:08;;;;;;;6.80;0.90;;;;;;;;;;5262775;28;20021;-77
2023/09/20 04:29:39;;;;;;;3.15;0.60;;;;;;;;;;5262586;28;20438;-77
2023/09/20 04:32:13;;;;;;;2.28;0.60;;;;;;;;;;5262028;28;20017;-79
2023/09/20 04:34:45;;;;;;;2.53;0.80;;;;;;;;;;5262368;28;20468;-78
2023/09/20 04:37:16;;;;;;;3.55;0.60;;;;;;;;;;5262517;28;20028;-78
2023/09/20 04:39:47;;;;;;;5.22;0.80;;;;;;;;;;5261767;28;20495;-78
2023/09/20 04:42:19;;;;;;;3.90;0.70;;;;;;;;;;5263105;28;20009;-78
2023/09/20 04:44:51;;;;;;;5.37;0.73;;;;;;;;;;5262059;28;20057;-77
2023/09/20 04:47:22;;;;;;;4.90;0.98;;;;;;;;;;5262439;28;20262;-78
2023/09/20 04:49:53;;;;;;;4.87;0.60;;;;;;;;;;5261980;28;20480;-77
2023/09/20 04:52:24;;;;;;;3.67;0.70;;;;;;;;;;5261967;28;20313;-77
2023/09/20 04:54:56;;;;;;;3.80;0.65;;;;;;;;;;5262376;28;20275;-76
2023/09/20 04:57:27;;;;;;;2.53;0.70;;;;;;;;;;5262054;28;20021;-76
2023/09/20 04:59:59;;;;;;;3.92;0.77;;;;;;;;;;5261515;28;20646;-78
2023/09/20 05:02:30;;;;;;;4.80;0.73;;;;;;;;;;5262570;28;20020;-78
2023/09/20 05:05:04;;;;;;;4.80;0.77;;;;;;;;;;5261894;28;20013;-78
2023/09/20 05:07:35;;;;;;;4.72;0.80;;;;;;;;;;5261359;28;20283;-80
2023/09/20 05:10:06;;;;;;;6.20;0.90;;;;;;;;;;5261642;28;20032;-79
2023/09/20 05:12:38;;;;;;;5.35;0.70;;;;;;;;;;5262001;28;20426;-79
2023/09/20 05:15:12;;;;;;;2.63;0.90;;;;;;;;;;5261417;28;20017;-82
2023/09/20 05:17:44;;;;;;;4.53;0.82;;;;;;;;;;5261745;28;20028;-80
2023/09/20 05:20:15;;;;;;;2.67;0.60;;;;;;;;;;5261654;28;20013;-81
2023/09/20 05:22:46;;;;;;;4.75;1.00;;;;;;;;;;5260631;28;20096;-81
2023/09/20 05:25:19;;;;;;;3.63;0.90;;;;;;;;;;5261575;28;20045;-81
2023/09/20 05:27:51;;;;;;;4.82;0.95;;;;;;;;;;5260476;28;20037;-81
2023/09/20 05:30:24;;;;;;;5.47;0.90;;;;;;;;;;5275010;28;20052;-81
2023/09/20 05:32:55;;;;;;;5.03;1.05;;;;;;;;;;5281855;28;20020;-78
2023/09/20 05:35:27;;;;;;;4.72;0.90;;;;;;;;;;5281312;28;20013;-80
2023/09/20 05:37:59;;;;;;;3.42;0.90;;;;;;;;;;5280687;28;20486;-81
2023/09/20 05:40:30;;;;;;;4.32;0.80;;;;;;;;;;5281347;28;20016;-81
2023/09/20 05:43:03;;;;;;;4.88;0.93;;;;;;;;;;5281501;28;20029;-81
2023/09/20 05:45:35;;;;;;;5.40;0.82;;;;;;;;;;5282136;28;20062;-81
2023/09/20 05:48:06;;;;;;;4.68;0.60;;;;;;;;;;5281585;28;20032;-81
2023/09/20 05:50:38;;;;;;;4.20;0.80;;;;;;;;;;5263556;28;20016;-81
2023/09/20 05:53:12;;;;;;;2.80;0.68;;;;;;;;;;5281874;28;20415;-82
2023/09/20 05:55:44;;;;;;;2.50;0.63;;;;;;;;;;5281339;28;20463;-82
2023/09/20 05:58:15;;;;;;;3.58;0.60;;;;;;;;;;5281932;28;20070;-82
2023/09/20 06:00:46;;;;;;;4.97;0.60;;;;;;;;;;5281316;28;20039;-82
2023/09/20 06:03:17;;;;;;;4.22;0.82;;;;;;;;;;5281849;28;20109;-82
2023/09/20 06:05:49;;;;;;;4.07;0.77;;;;;;;;;;5281521;28;20024;-81
2023/09/20 06:08:20;;;;;;;3.35;0.50;;;;;;;;;;5281591;28;20287;-81
2023/09/20 06:10:52;;;;;;;4.20;0.70;;;;;;;;;;5280724;28;20349;-81
2023/09/20 06:13:23;;;;;;;3.35;0.90;;;;;;;;;;5281569;28;20096;-81
2023/09/20 06:15:54;;;;;;;2.97;0.57;;;;;;;;;;5281545;28;20012;-80
2023/09/20 06:18:26;;;;;;;2.90;0.60;;;;;;;;;;5281404;28;20047;-81
2023/09/20 06:20:59;;;;;;;3.55;0.65;;;;;;;;;;5281551;28;20266;-82
2023/09/20 06:23:31;;;;;;;3.83;0.60;;;;;;;;;;5281704;28;20027;-82
2023/09/20 06:26:03;;;;;;;2.92;0.60;;;;;;;;;;5281252;28;20012;-82
2023/09/20 06:28:35;;;;;;;2.42;0.52;;;;;;;;;;5281448;28;20060;-82
2023/09/20 06:31:07;;;;;;;3.20;0.70;;;;;;;;;;5280794;28;20076;-81
2023/09/20 06:33:47;;;;;;;3.17;0.70;;;;;;;;;;5281347;28;20025;-81
2023/09/20 06:36:22;;;;;;;2.20;0.60;;;;;;;;;;5281784;28;20013;-82
2023/09/20 06:38:53;;;;;;;2.85;0.50;;;;;;;;;;5280451;28;20027;-81
2023/09/20 06:41:24;;;;;;;2.23;0.50;;;;;;;;;;5281286;28;20013;-82
2023/09/20 06:43:58;;;;;;;4.15;0.70;;;;;;;;;;5281050;28;20629;-82
2023/09/20 06:46:30;;;;;;;7.03;0.60;;;;;;;;;;5281031;28;20169;-81
2023/09/20 06:49:02;;;;;;;4.75;0.52;;;;;;;;;;5283600;28;20115;-82
2023/09/20 06:51:33;;;;;;;2.83;0.60;;;;;;;;;;5285541;28;20016;-81
2023/09/20 06:54:04;;;;;;;4.47;0.63;;;;;;;;;;5285014;28;20032;-82
2023/09/20 06:56:35;;;;;;;3.15;0.40;;;;;;;;;;5285248;28;20262;-82
2023/09/20 06:59:07;;;;;;;2.77;0.47;;;;;;;;;;5284964;28;20108;-81
2023/09/20 07:01:39;;;;;;;3.00;0.70;;;;;;;;;;5285399;28;20255;-81
2023/09/20 07:04:11;;;;;;;3.65;0.60;;;;;;;;;;5285204;28;20021;-82
2023/09/20 07:06:42;;;;;;;2.35;0.60;;;;;;;;;;5284780;28;20031;-82
2023/09/20 07:09:13;;;;;;;3.72;0.70;;;;;;;;;;5285064;28;20074;-82
2023/09/20 07:11:46;;;;;;;2.67;0.40;;;;;;;;;;5284965;28;20091;-82
2023/09/20 07:14:21;;;;;;;2.60;0.50;;;;;;;;;;5285042;28;20486;-81
2023/09/20 07:16:52;;;;;;;1.77;0.50;;;;;;;;;;5284751;28;20024;-81
2023/09/20 07:19:26;;;;;;;1.38;0.50;;;;;;;;;;5284734;28;20024;-81
2023/09/20 07:21:59;;;;;;;2.30;0.40;;;;;;;;;;5284449;28;20024;-82
2023/09/20 07:24:32;;;;;;;2.55;0.70;;;;;;;;;;5284637;28;20016;-82
2023/09/20 07:27:04;;;;;;;2.55;0.50;;;;;;;;;;5284379;28;20786;-81
2023/09/20 07:29:36;;;;;;;2.22;0.60;;;;;;;;;;5284552;28;20048;-82
2023/09/20 07:32:08;;;;;;;4.05;0.50;;;;;;;;;;5284371;28;20016;-79
2023/09/20 07:34:39;;;;;;;2.22;0.70;;;;;;;;;;5284111;28;20091;-82
2023/09/20 07:37:12;;;;;;;4.03;0.60;;;;;;;;;;5284768;28;20052;-78
2023/09/20 07:39:46;;;;;;;4.75;0.63;;;;;;;;;;5284464;28;20357;-83
2023/09/20 07:42:20;;;;;;;3.33;0.55;;;;;;;;;;5284196;28;20490;-82
2023/09/20 07:44:51;;;;;;;2.80;0.65;;;;;;;;;;5284369;28;20032;-82
2023/09/20 07:47:22;;;;;;;3.77;0.70;;;;;;;;;;5284697;28;20478;-83
2023/09/20 07:49:53;;;;;;;5.47;0.60;;;;;;;;;;5284332;28;20293;-83
2023/09/20 07:52:25;;;;;;;2.00;0.50;;;;;;;;;;5284465;28;20267;-82
2023/09/20 07:54:56;;;;;;;1.77;0.53;;;;;;;;;;5284359;28;20352;-83
2023/09/20 07:57:28;;;;;;;1.88;0.50;;;;;;;;;;5283938;28;20263;-83
2023/09/20 07:59:59;;;;;;;2.38;0.80;;;;;;;;;;5283063;28;20062;-84
2023/09/20 08:02:30;;;;;;;2.38;0.60;;;;;;;;;;5283806;28;20020;-83
2023/09/20 08:05:02;;;;;;;4.80;0.80;;;;;;;;;;5284394;28;20024;-84
2023/09/20 08:07:37;;;;;;;3.67;0.60;;;;;;;;;;5283826;28;20255;-83
2023/09/20 08:10:08;;;;;;;3.80;0.77;;;;;;;;;;5283544;28;20025;-83
2023/09/20 08:12:39;;;;;;;5.45;1.27;;;;;;;;;;5270289;28;20558;-83
2023/09/20 08:15:12;;;;;;;5.65;0.80;;;;;;;;;;5261900;28;20464;-83
2023/09/20 08:20:37;;;;;;;6.18;1.00;;;;;;;;;;5262821;28;20021;-82
2023/09/20 09:00:24;;;;;;;2.42;0.60;;;;;;;;;;5261787;28;20032;-81
2023/09/20 09:02:57;;;;;;;2.72;0.70;;;;;;;;;;5262089;28;20017;-80
2023/09/20 09:05:29;;;;;;;4.88;0.65;;;;;;;;;;5261827;28;20041;-80
2023/09/20 09:08:01;;;;;;;3.38;0.70;;;;;;;;;;5262238;28;20060;-78
2023/09/20 09:10:32;;;;;;;2.70;0.60;;;;;;;;;;5261586;28;20484;-80
2023/09/20 09:13:04;;;;;;;2.13;0.60;;;;;;;;;;5261413;28;20017;-79
2023/09/20 09:15:35;;;;;;;1.90;0.60;;;;;;;;;;5261498;28;20255;-81
2023/09/20 09:18:12;;;;;;;4.15;1.00;;;;;;;;;;5261347;28;20040;-81
2023/09/20 09:20:47;;;;;;;6.47;0.75;;;;;;;;;;5261542;28;20108;-81
2023/09/20 09:23:30;;;;;;;2.80;0.60;;;;;;;;;;5261898;28;20357;-80
2023/09/20 09:26:02;;;;;;;4.05;0.80;;;;;;;;;;5261661;28;20013;-80
2023/09/20 09:28:36;;;;;;;2.58;0.60;;;;;;;;;;5261389;28;20052;-80
2023/09/20 09:31:08;;;;;;;2.15;0.65;;;;;;;;;;5260850;28;20527;-80
2023/09/20 09:33:39;;;;;;;4.07;1.05;;;;;;;;;;5260790;28;20017;-81
2023/09/20 09:36:12;;;;;;;2.15;0.57;;;;;;;;;;5263348;28;20066;-82
2023/09/20 09:38:43;;;;;;;2.45;0.50;;;;;;;;;;5280638;28;20055;-81
2023/09/20 09:41:15;;;;;;;1.80;0.60;;;;;;;;;;5280562;28;20048;-80
2023/09/20 09:43:55;;;;;;;2.10;0.60;;;;;;;;;;5280247;28;20024;-81
2023/09/20 09:46:27;;;;;;;2.20;0.45;;;;;;;;;;5280726;28;20111;-81
2023/09/20 09:48:58;;;;;;;2.03;0.40;;;;;;;;;;5280319;28;20068;-80
2023/09/20 09:51:32;;;;;;;2.65;0.50;;;;;;;;;;5280583;28;20068;-80
2023/09/20 09:54:04;;;;;;;2.58;0.68;;;;;;;;;;5280718;28;20101;-82
2023/09/20 09:56:37;;;;;;;3.08;0.90;;;;;;;;;;5279921;28;20060;-82
2023/09/20 09:59:10;;;;;;;3.03;0.52;;;;;;;;;;5281267;28;20021;-81
2023/09/20 10:01:41;;;;;;;2.55;0.50;;;;;;;;;;5281109;28;20386;-82
2023/09/20 10:04:14;;;;;;;2.95;0.70;;;;;;;;;;5280570;28;20115;-82
2023/09/20 10:06:45;;;;;;;1.95;0.50;;;;;;;;;;5281411;28;20082;-82
2023/09/20 10:09:20;;;;;;;1.40;0.50;;;;;;;;;;5281617;28;20036;-82
2023/09/20 10:11:51;;;;;;;3.35;0.40;;;;;;;;;;5281798;28;20028;-82
2023/09/20 10:14:22;;;;;;;2.53;0.50;;;;;;;;;;5281852;28;20047;-82
2023/09/20 10:16:53;;;;;;;2.80;0.40;;;;;;;;;;5280983;28;20396;-82
2023/09/20 10:19:24;;;;;;;2.47;0.50;;;;;;;;;;5281658;28;20459;-82
2023/09/20 10:22:01;;;;;;;2.20;0.40;;;;;;;;;;5281344;28;20020;-82
2023/09/20 10:24:42;;;;;;;2.83;0.40;;;;;;;;;;5280713;28;20271;-81
2023/09/20 10:27:17;;;;;;;2.35;0.40;;;;;;;;;;5281852;28;20009;-81
2023/09/20 10:30:00;;;;;;;1.15;0.30;;;;;;;;;;5280830;28;20087;-82
2023/09/20 10:32:32;;;;;;;2.97;0.45;;;;;;;;;;5281955;28;20537;-81
2023/09/20 10:35:23;;;;;;;1.20;0.30;;;;;;;;;;5281367;28;20013;-81
2023/09/20 10:38:01;;;;;;;1.08;0.40;;;;;;;;;;5281104;28;20028;-80
2023/09/20 10:40:45;;;;;;;3.43;0.30;;;;;;;;;;5281816;28;20386;-81
2023/09/20 10:43:19;;;;;;;2.47;0.65;;;;;;;;;;5281896;28;20835;-81
2023/09/20 10:45:51;;;;;;;1.02;0.30;;;;;;;;;;5281021;28;20115;-81
2023/09/20 10:48:23;;;;;;;1.48;0.30;;;;;;;;;;5281292;28;20043;-81
2023/09/20 10:50:57;;;;;;;2.80;0.40;;;;;;;;;;5280875;28;20020;-80
2023/09/20 10:53:47;;;;;;;1.92;0.30;;;;;;;;;;5281557;28;20020;-81
2023/09/20 10:56:37;;;;;;;2.08;0.30;;;;;;;;;;5281584;28;20020;-80
2023/09/20 10:59:14;;;;;;;1.05;0.30;;;;;;;;;;5281538;28;20462;-81
2023/09/20 11:01:58;;;;;;;1.65;0.20;;;;;;;;;;5281832;28;20070;-83
2023/09/20 11:04:30;;;;;;;1.15;0.40;;;;;;;;;;5283001;28;20017;-80
2023/09/20 11:07:02;;;;;;;2.22;0.30;;;;;;;;;;5284604;28;20570;-81
2023/09/20 11:09:34;;;;;;;1.77;0.30;;;;;;;;;;5284067;28;20024;-80
2023/09/20 11:12:09;;;;;;;3.90;0.40;;;;;;;;;;5286822;28;20046;-80
2023/09/20 11:14:41;;;;;;;1.10;0.30;;;;;;;;;;5284416;28;20099;-82
2023/09/20 11:17:13;;;;;;;2.80;0.20;;;;;;;;;;5281903;28;20115;-81
2023/09/20 11:19:45;;;;;;;3.13;0.30;;;;;;;;;;5282751;28;20079;-80
2023/09/20 11:22:18;;;;;;;1.50;0.50;;;;;;;;;;5283912;28;20045;-80
2023/09/20 11:24:51;;;;;;;3.47;0.50;;;;;;;;;;5283090;28;20021;-81
2023/09/20 11:27:23;;;;;;;1.45;0.40;;;;;;;;;;5288094;28;20013;-82
2023/09/20 11:30:04;;;;;;;3.15;0.55;;;;;;;;;;5286028;28;20055;-82
2023/09/20 11:32:37;;;;;;;3.08;0.30;;;;;;;;;;5286080;28;20020;-81
2023/09/20 11:35:09;;;;;;;2.47;0.40;;;;;;;;;;5287653;28;20080;-80
2023/09/20 11:37:40;;;;;;;1.80;0.50;;;;;;;;;;5290309;28;20090;-81
2023/09/20 11:40:12;;;;;;;3.28;0.32;;;;;;;;;;5289183;28;20089;-80
2023/09/20 11:42:44;;;;;;;1.48;0.45;;;;;;;;;;5286667;28;20107;-81
2023/09/20 11:45:16;;;;;;;3.45;0.50;;;;;;;;;;5289902;28;20024;-81
2023/09/20 11:47:50;;;;;;;2.85;0.40;;;;;;;;;;5289809;28;20052;-79
2023/09/20 11:50:22;;;;;;;2.15;0.20;;;;;;;;;;5288303;28;20078;-81
2023/09/20 11:52:53;;;;;;;1.40;0.30;;;;;;;;;;5286014;28;20406;-82
2023/09/20 11:55:25;;;;;;;3.00;0.30;;;;;;;;;;5285763;28;20017;-81
2023/09/20 11:57:59;;;;;;;1.98;0.38;;;;;;;;;;5285920;28;20012;-81
2023/09/20 12:00:30;;;;;;;3.88;0.45;;;;;;;;;;5284830;28;20020;-81
2023/09/20 12:03:02;;;;;;;1.45;0.40;;;;;;;;;;5284456;28;20536;-81
2023/09/20 12:05:34;;;;;;;2.72;0.40;;;;;;;;;;5284714;28;20024;-80
2023/09/20 12:08:06;;;;;;;1.33;0.30;;;;;;;;;;5284264;28;20033;-81
2023/09/20 12:10:37;;;;;;;3.28;0.40;;;;;;;;;;5283643;28;20038;-81
2023/09/20 12:13:08;;;;;;;1.27;0.25;;;;;;;;;;5284226;28;20020;-81
2023/09/20 12:15:42;;;;;;;2.27;0.30;;;;;;;;;;5283831;28;20021;-81
2023/09/20 12:18:14;;;;;;;2.20;0.32;;;;;;;;;;5284145;28;20737;-81
2023/09/20 12:20:48;;;;;;;3.25;0.30;;;;;;;;;;5283434;28;20028;-82
2023/09/20 12:23:19;;;;;;;3.30;0.35;;;;;;;;;;5283638;28;20017;-81
2023/09/20 12:25:50;;;;;;;3.37;0.50;;;;;;;;;;5283140;28;20027;-82
2023/09/20 12:28:23;;;;;;;1.90;0.30;;;;;;;;;;5284018;28;20318;-83
2023/09/20 12:30:54;;;;;;;1.83;0.40;;;;;;;;;;5282843;28;20040;-80
2023/09/20 12:33:25;;;;;;;1.70;0.30;;;;;;;;;;5283442;28;20478;-81
2023/09/20 12:36:00;;;;;;;1.90;0.30;;;;;;;;;;5283475;28;20259;-82
2023/09/20 12:38:31;;;;;;;2.78;0.30;;;;;;;;;;5283299;28;20027;-81
2023/09/20 12:41:02;;;;;;;2.78;0.35;;;;;;;;;;5283209;28;20021;-80
2023/09/20 12:43:33;;;;;;;0.87;0.27;;;;;;;;;;5282537;28;20024;-77
2023/09/20 12:46:04;;;;;;;2.63;0.40;;;;;;;;;;5282593;28;20686;-81
2023/09/20 12:48:37;;;;;;;3.20;0.63;;;;;;;;;;5282247;28;20291;-82
2023/09/20 12:51:08;;;;;;;2.05;0.40;;;;;;;;;;5281631;28;20409;-82
2023/09/20 12:53:39;;;;;;;1.70;0.30;;;;;;;;;;5282334;28;20016;-81
2023/09/20 12:56:13;;;;;;;1.10;0.22;;;;;;;;;;5280937;28;20258;-82
2023/09/20 12:58:44;;;;;;;1.05;0.20;;;;;;;;;;5280257;28;20024;-82
2023/09/20 13:01:16;;;;;;;2.57;0.30;;;;;;;;;;5281086;28;20020;-82
2023/09/20 13:03:47;;;;;;;3.00;0.40;;;;;;;;;;5281195;28;20313;-81
2023/09/20 13:06:18;;;;;;;2.10;0.63;;;;;;;;;;5281253;28;20016;-80
2023/09/20 13:08:49;;;;;;;2.15;0.30;;;;;;;;;;5280857;28;20043;-79
2023/09/20 13:11:22;;;;;;;1.37;0.40;;;;;;;;;;5283178;28;20020;-82
2023/09/20 13:13:53;;;;;;;0.98;0.30;;;;;;;;;;5281805;28;20258;-81
2023/09/20 13:16:25;;;;;;;2.45;0.30;;;;;;;;;;5282696;28;20371;-82
2023/09/20 13:18:56;;;;;;;3.13;0.30;;;;;;;;;;5282034;28;20020;-82
2023/09/20 13:21:28;;;;;;;2.08;0.20;;;;;;;;;;5282367;28;20013;-82
2023/09/20 13:23:59;;;;;;;1.25;0.20;;;;;;;;;;5282305;28;20017;-80
2023/09/20 13:26:30;;;;;;;1.77;0.20;;;;;;;;;;5281964;28;20039;-79
2023/09/20 13:29:01;;;;;;;3.40;0.40;;;;;;;;;;5282170;28;20491;-81
2023/09/20 13:31:35;;;;;;;1.43;0.30;;;;;;;;;;5282478;28;20266;-80
2023/09/20 13:34:14;;;;;;;2.33;0.30;;;;;;;;;;5281929;28;20282;-80
2023/09/20 13:36:45;;;;;;;1.92;0.30;;;;;;;;;;5281994;28;20403;-78
2023/09/20 13:39:16;;;;;;;2.97;0.40;;;;;;;;;;5282527;28;20020;-76
2023/09/20 13:41:49;;;;;;;2.42;0.30;;;;;;;;;;5281372;28;20313;-81
2023/09/20 13:44:20;;;;;;;1.70;0.30;;;;;;;;;;5282304;28;20024;-81
2023/09/20 13:46:51;;;;;;;1.25;0.20;;;;;;;;;;5281345;28;20013;-80
2023/09/20 13:49:22;;;;;;;1.13;0.20;;;;;;;;;;5282191;28;20036;-80
2023/09/20 13:51:53;;;;;;;4.40;0.30;;;;;;;;;;5281636;28;20391;-79
2023/09/20 13:54:25;;;;;;;1.02;0.20;;;;;;;;;;5281800;28;20265;-78
2023/09/20 13:56:56;;;;;;;2.30;0.40;;;;;;;;;;5281729;28;20021;-79
2023/09/20 13:59:30;;;;;;;2.88;0.35;;;;;;;;;;5281849;28;20033;-79
2023/09/20 14:02:01;;;;;;;1.15;0.30;;;;;;;;;;5280886;28;20038;-78
2023/09/20 14:04:33;;;;;;;2.42;0.30;;;;;;;;;;5278115;28;20402;-79
2023/09/20 14:07:04;;;;;;;2.00;0.20;;;;;;;;;;5264380;28;20428;-80
2023/09/20 14:09:36;;;;;;;1.50;0.30;;;;;;;;;;5258971;28;20287;-77
2023/09/20 14:12:07;;;;;;;2.22;0.30;;;;;;;;;;5267182;28;20017;-79
2023/09/20 14:14:39;;;;;;;2.05;0.30;;;;;;;;;;5259799;28;20013;-80
2023/09/20 14:17:10;;;;;;;1.15;0.20;;;;;;;;;;5258255;28;20116;-79
2023/09/20 14:19:43;;;;;;;2.73;0.40;;;;;;;;;;5257998;28;20037;-80
2023/09/20 14:22:14;;;;;;;2.22;0.30;;;;;;;;;;5258291;28;20313;-80
2023/09/20 14:24:49;;;;;;;1.30;0.20;;;;;;;;;;5241553;28;20041;-80
2023/09/20 14:27:20;;;;;;;1.73;0.35;;;;;;;;;;5259619;28;20672;-79
2023/09/20 14:29:51;;;;;;;2.23;0.30;;;;;;;;;;5258317;28;20257;-80
2023/09/20 14:32:22;;;;;;;1.58;0.30;;;;;;;;;;5259435;28;20268;-79
2023/09/20 14:34:54;;;;;;;1.23;0.30;;;;;;;;;;5259596;28;20021;-80
2023/09/20 14:37:26;;;;;;;1.10;0.20;;;;;;;;;;5262898;28;20434;-81
2023/09/20 14:39:57;;;;;;;1.70;0.40;;;;;;;;;;5268911;28;20303;-78
2023/09/20 14:42:29;;;;;;;3.42;0.30;;;;;;;;;;5260497;28;20514;-79
2023/09/20 14:45:00;;;;;;;2.42;0.30;;;;;;;;;;5278612;28;20403;-80
2023/09/20 14:47:31;;;;;;;1.83;0.30;;;;;;;;;;5281133;28;20036;-81
2023/09/20 14:50:04;;;;;;;2.27;0.47;;;;;;;;;;5280865;28;20025;-80
2023/09/20 14:52:37;;;;;;;2.25;0.38;;;;;;;;;;5280533;28;20258;-79
2023/09/20 14:55:09;;;;;;;1.55;0.38;;;;;;;;;;5279227;28;20048;-81
2023/09/20 14:57:41;;;;;;;1.83;0.40;;;;;;;;;;5278872;28;20026;-80
2023/09/20 15:00:18;;;;;;;1.75;0.38;;;;;;;;;;5280224;28;20032;-81
2023/09/20 15:02:51;;;;;;;2.05;0.30;;;;;;;;;;5279275;28;20042;-81
2023/09/20 15:05:22;;;;;;;0.98;0.30;;;;;;;;;;5281299;28;20024;-81
2023/09/20 15:07:55;;;;;;;2.05;0.30;;;;;;;;;;5281056;28;20442;-80
2023/09/20 15:10:26;;;;;;;2.08;0.30;;;;;;;;;;5284280;28;20444;-81
2023/09/20 15:12:57;;;;;;;0.98;0.30;;;;;;;;;;5284926;28;20027;-80
2023/09/20 15:15:29;;;;;;;0.80;0.30;;;;;;;;;;5284977;28;20024;-80
2023/09/20 15:18:01;;;;;;;1.75;0.30;;;;;;;;;;5285104;28;20661;-79
2023/09/20 15:20:32;;;;;;;2.28;0.30;;;;;;;;;;5284550;28;20021;-79
2023/09/20 15:23:05;;;;;;;2.40;0.40;;;;;;;;;;5284898;28;20386;-78
2023/09/20 15:25:36;;;;;;;1.70;0.30;;;;;;;;;;5284667;28;20259;-80
2023/09/20 15:28:08;;;;;;;2.93;0.30;;;;;;;;;;5285130;28;20025;-80
2023/09/20 15:30:40;;;;;;;1.15;0.30;;;;;;;;;;5266697;28;20295;-80
2023/09/20 15:33:11;;;;;;;2.67;0.30;;;;;;;;;;5283541;28;20074;-79
2023/09/20 15:35:43;;;;;;;1.50;0.20;;;;;;;;;;5284607;28;20040;-80
2023/09/20 15:38:14;;;;;;;2.65;0.30;;;;;;;;;;5284992;28;20078;-79
2023/09/20 15:40:46;;;;;;;2.27;0.40;;;;;;;;;;5283894;28;20013;-79
2023/09/20 15:43:17;;;;;;;1.83;0.35;;;;;;;;;;5284743;28;20312;-78
2023/09/20 15:45:49;;;;;;;3.27;0.40;;;;;;;;;;5284145;28;20042;-78
2023/09/20 15:48:20;;;;;;;1.15;0.30;;;;;;;;;;5284318;28;20374;-79
2023/09/20 15:50:52;;;;;;;2.77;0.40;;;;;;;;;;5284243;28;20123;-77
2023/09/20 15:53:23;;;;;;;1.17;0.38;;;;;;;;;;5284213;28;20328;-79